Time;durP1;ratioP1;P1;durP2;ratioP2;P2;SDS_P1;SDS_P2;PMS_P1;PMS_P2;Temp;Humidity;BMP_temperature;BMP_pressure;BME280_temperature;BME280_humidity;BME280_pressure;Samples;Min_cycle;Max_cycle;Signal;HPM_P1;HPM_P2
2021/05/08 00:02:07;;;;;;;;;;;;;;;21.75;49.11;100012.97;5038682;28;818;-58
2021/05/08 00:04:33;;;;;;;;;;;;;;;21.97;48.73;100013.94;5037504;28;1157;-66
2021/05/08 00:06:59;;;;;;;;;;;;;;;21.68;49.41;100013.47;5038637;28;800;-46
2021/05/08 00:09:25;;;;;;;;;;;;;;;21.41;50.09;100014.59;5038198;28;1969;-68
2021/05/08 00:11:53;;;;;;;;;;;;;;;21.04;50.56;100008.53;5038467;28;839;-46
2021/05/08 00:14:19;;;;;;;;;;;;;;;21.69;49.55;100000.47;5038336;28;807;-61
2021/05/08 00:16:44;;;;;;;;;;;;;;;22.01;48.30;100003.84;5038323;28;852;-69
2021/05/08 00:19:10;;;;;;;;;;;;;;;22.29;47.61;100000.66;5038277;28;784;-49
2021/05/08 00:21:35;;;;;;;;;;;;;;;22.29;47.60;100004.22;5038043;28;938;-68
2021/05/08 00:24:01;;;;;;;;;;;;;;;22.38;47.40;100007.00;5036229;28;1010;-60
2021/05/08 00:26:26;;;;;;;;;;;;;;;22.33;47.52;100005.22;5038137;28;886;-66
2021/05/08 00:28:56;;;;;;;;;;;;;;;22.48;47.25;100014.97;5037765;28;1979;-65
2021/05/08 00:31:35;;;;;;;;;;;;;;;21.78;48.79;100012.31;5038114;28;835;-64
2021/05/08 00:34:00;;;;;;;;;;;;;;;21.62;49.37;100014.78;5038076;28;839;-65
2021/05/08 00:36:26;;;;;;;;;;;;;;;21.20;49.17;100018.00;5037787;28;792;-55
2021/05/08 00:38:52;;;;;;;;;;;;;;;21.44;50.02;100010.38;5053368;28;1157;-51
2021/05/08 00:41:17;;;;;;;;;;;;;;;21.77;48.88;100021.78;5038226;28;744;-51
2021/05/08 00:43:43;;;;;;;;;;;;;;;22.12;48.03;100020.88;5038106;28;791;-48
2021/05/08 00:46:09;;;;;;;;;;;;;;;22.14;48.02;100013.88;5037651;28;769;-50
2021/05/08 00:48:34;;;;;;;;;;;;;;;22.27;47.56;100008.47;5036194;28;1906;-65
2021/05/08 00:51:00;;;;;;;;;;;;;;;22.15;47.35;100004.44;5037719;28;776;-49
2021/05/08 00:53:26;;;;;;;;;;;;;;;22.04;48.06;99997.63;5037376;28;950;-51
2021/05/08 00:55:52;;;;;;;;;;;;;;;22.09;48.00;100005.78;5036875;28;804;-47
2021/05/08 00:58:18;;;;;;;;;;;;;;;21.53;49.36;100006.50;5036371;28;1115;-57
2021/05/08 01:00:44;;;;;;;;;;;;;;;21.46;49.46;100011.69;5036715;28;1101;-65
2021/05/08 01:03:10;;;;;;;;;;;;;;;21.36;49.59;100017.50;5036640;28;1094;-65
2021/05/08 01:05:37;;;;;;;;;;;;;;;21.16;49.49;100017.00;5052577;28;804;-65
2021/05/08 01:08:07;;;;;;;;;;;;;;;21.08;49.29;100006.75;5036457;28;1982;-65
2021/05/08 01:10:32;;;;;;;;;;;;;;;21.12;49.63;100013.25;5037418;28;982;-54
2021/05/08 01:12:58;;;;;;;;;;;;;;;21.44;49.93;100005.66;5037318;28;835;-65
2021/05/08 01:15:24;;;;;;;;;;;;;;;21.71;49.17;99998.16;5035982;28;1221;-50
2021/05/08 01:18:05;;;;;;;;;;;;;;;21.86;48.66;99996.84;5035809;28;1127;-67
2021/05/08 01:20:30;;;;;;;;;;;;;;;22.23;47.81;99991.69;5036003;28;1130;-67
2021/05/08 01:22:59;;;;;;;;;;;;;;;22.18;47.95;99986.34;5051853;28;827;-66
2021/05/08 01:25:26;;;;;;;;;;;;;;;21.65;49.05;99988.41;5052664;28;1141;-66
2021/05/08 01:28:20;;;;;;;;;;;;;;;21.63;49.33;99983.22;5036968;28;772;-50
2021/05/08 01:30:50;;;;;;;;;;;;;;;21.34;49.20;99981.88;5036913;28;783;-52
2021/05/08 01:33:16;;;;;;;;;;;;;;;21.59;49.59;99985.00;5052397;28;796;-66
2021/05/08 01:35:42;;;;;;;;;;;;;;;22.00;48.35;99985.59;5035851;28;895;-68
2021/05/08 01:38:08;;;;;;;;;;;;;;;22.10;48.26;99995.50;5035275;28;909;-72
2021/05/08 01:40:38;;;;;;;;;;;;;;;22.43;47.28;99987.44;5036768;28;989;-46
2021/05/08 01:43:07;;;;;;;;;;;;;;;22.60;46.90;99991.28;5035568;28;1165;-60
2021/05/08 01:45:33;;;;;;;;;;;;;;;22.30;47.50;99983.72;5035731;28;1129;-44
2021/05/08 01:48:04;;;;;;;;;;;;;;;22.06;48.33;99989.78;5036744;28;794;-67
2021/05/08 01:50:30;;;;;;;;;;;;;;;21.91;47.30;99993.09;5035530;28;1252;-66
2021/05/08 01:52:56;;;;;;;;;;;;;;;21.76;49.18;99992.47;5036978;28;747;-67
2021/05/08 01:55:23;;;;;;;;;;;;;;;22.02;48.23;99986.06;5020443;28;1374;-67
2021/05/08 01:57:50;;;;;;;;;;;;;;;22.16;47.73;99986.69;5036498;28;768;-62
2021/05/08 02:00:17;;;;;;;;;;;;;;;22.41;47.21;99986.94;5036832;28;830;-46
2021/05/08 02:02:47;;;;;;;;;;;;;;;22.44;47.18;99991.84;5035489;28;814;-67
2021/05/08 02:05:17;;;;;;;;;;;;;;;22.56;46.80;99994.69;5036505;28;824;-66
2021/05/08 02:07:45;;;;;;;;;;;;;;;22.16;47.88;99994.16;5019225;28;1151;-65
2021/05/08 02:10:13;;;;;;;;;;;;;;;22.00;48.21;100007.72;5014825;28;1973;-65
2021/05/08 02:12:38;;;;;;;;;;;;;;;21.66;47.93;100009.44;4999389;28;1190;-65
2021/05/08 02:15:08;;;;;;;;;;;;;;;21.58;49.41;100007.47;5016492;28;776;-67
2021/05/08 02:17:34;;;;;;;;;;;;;;;21.51;49.70;100019.00;5016598;28;724;-51
2021/05/08 02:19:59;;;;;;;;;;;;;;;21.63;49.23;100010.88;5016504;28;1045;-69
2021/05/08 02:22:25;;;;;;;;;;;;;;;21.40;49.20;100012.16;4999120;28;1262;-61
2021/05/08 02:24:50;;;;;;;;;;;;;;;21.31;48.59;100015.72;5022426;28;1124;-60
2021/05/08 02:27:16;;;;;;;;;;;;;;;21.56;48.10;100018.03;5036262;28;840;-60
2021/05/08 02:29:42;;;;;;;;;;;;;;;21.67;48.09;100016.56;5035313;28;1906;-61
2021/05/08 02:32:07;;;;;;;;;;;;;;;21.63;48.90;100027.47;5036239;28;771;-64
2021/05/08 02:34:33;;;;;;;;;;;;;;;21.72;49.18;100027.47;5036405;28;785;-64
2021/05/08 02:37:00;;;;;;;;;;;;;;;21.99;48.28;100033.78;5035969;28;784;-44
2021/05/08 02:39:25;;;;;;;;;;;;;;;22.31;47.38;100034.34;5028324;28;1122;-67
2021/05/08 02:41:52;;;;;;;;;;;;;;;22.11;48.11;100042.22;5035529;28;1155;-59
2021/05/08 02:44:18;;;;;;;;;;;;;;;22.13;47.94;100045.50;5018260;28;1132;-52
2021/05/08 02:46:44;;;;;;;;;;;;;;;21.79;48.96;100052.69;5018522;28;1548;-65
2021/05/08 02:49:10;;;;;;;;;;;;;;;21.67;49.13;100055.28;5034998;28;2000;-65
2021/05/08 02:51:35;;;;;;;;;;;;;;;21.76;49.02;100061.66;5036029;28;748;-58
2021/05/08 02:54:01;;;;;;;;;;;;;;;22.02;48.49;100055.25;5035687;28;947;-70
2021/05/08 02:56:45;;;;;;;;;;;;;;;22.18;47.94;100061.91;5034821;28;1172;-48
2021/05/08 02:59:10;;;;;;;;;;;;;;;22.29;47.39;100069.91;5018124;28;895;-47
2021/05/08 03:01:36;;;;;;;;;;;;;;;22.42;47.18;100062.56;5018598;28;1214;-67
2021/05/08 03:04:02;;;;;;;;;;;;;;;22.48;47.05;100067.59;5018257;28;936;-46
2021/05/08 03:06:28;;;;;;;;;;;;;;;22.64;46.68;100065.06;5018438;28;1182;-53
2021/05/08 03:08:53;;;;;;;;;;;;;;;22.54;46.89;100069.03;5035633;28;1902;-67
2021/05/08 03:11:19;;;;;;;;;;;;;;;22.26;47.51;100073.31;5034671;28;1147;-62
2021/05/08 03:13:46;;;;;;;;;;;;;;;22.01;48.03;100079.38;5036106;28;831;-69
2021/05/08 03:16:12;;;;;;;;;;;;;;;21.69;48.40;100087.03;5018309;28;1160;-70
2021/05/08 03:18:38;;;;;;;;;;;;;;;21.72;48.84;100096.66;5002151;28;1151;-52
2021/05/08 03:21:04;;;;;;;;;;;;;;;21.99;48.09;100101.06;5020792;28;1215;-54
2021/05/08 03:23:30;;;;;;;;;;;;;;;22.24;47.59;100106.88;5037738;28;1012;-65
2021/05/08 03:25:55;;;;;;;;;;;;;;;22.31;47.33;100118.25;5039313;28;811;-49
2021/05/08 03:28:48;;;;;;;;;;;;;;;22.49;46.81;100119.06;5021801;28;1977;-65
2021/05/08 03:31:18;;;;;;;;;;;;;;;22.54;46.40;100132.75;5039072;28;803;-59
2021/05/08 03:33:44;;;;;;;;;;;;;;;22.56;46.71;100135.19;5022055;28;1096;-69
2021/05/08 03:36:09;;;;;;;;;;;;;;;22.66;46.52;100147.88;5038075;28;768;-48
2021/05/08 03:38:35;;;;;;;;;;;;;;;22.60;46.51;100149.22;5037831;28;975;-68
2021/05/08 03:41:00;;;;;;;;;;;;;;;22.43;46.81;100163.88;5039203;28;539;-47
2021/05/08 03:43:26;;;;;;;;;;;;;;;22.09;47.29;100171.88;5039256;28;779;-50
2021/05/08 03:45:51;;;;;;;;;;;;;;;21.82;47.53;100179.34;5036876;28;1454;-58
2021/05/08 03:48:17;;;;;;;;;;;;;;;21.81;47.43;100177.72;5029099;28;1906;-45
2021/05/08 03:50:42;;;;;;;;;;;;;;;21.73;47.53;100188.75;5022031;28;1487;-50
2021/05/08 03:53:08;;;;;;;;;;;;;;;21.80;48.15;100192.69;5014483;28;1483;-56
2021/05/08 03:55:34;;;;;;;;;;;;;;;21.86;48.45;100196.13;5039696;28;1203;-47
2021/05/08 03:58:00;;;;;;;;;;;;;;;22.12;48.28;100210.00;5020980;28;824;-65
2021/05/08 04:00:26;;;;;;;;;;;;;;;22.17;47.81;100212.59;5038734;28;776;-49
2021/05/08 04:02:51;;;;;;;;;;;;;;;22.22;47.86;100215.19;5037675;28;1266;-63
2021/05/08 04:05:17;;;;;;;;;;;;;;;22.31;47.27;100229.03;5038695;28;790;-46
2021/05/08 04:07:42;;;;;;;;;;;;;;;22.32;47.42;100227.91;5038549;28;763;-46
2021/05/08 04:10:08;;;;;;;;;;;;;;;22.23;47.79;100229.84;5037078;28;1913;-64
2021/05/08 04:12:33;;;;;;;;;;;;;;;22.41;47.31;100233.47;5037381;28;1588;-47
2021/05/08 04:14:59;;;;;;;;;;;;;;;22.45;47.06;100231.66;5038410;28;824;-48
2021/05/08 04:17:24;;;;;;;;;;;;;;;22.45;47.08;100234.44;5038588;28;918;-47
2021/05/08 04:19:50;;;;;;;;;;;;;;;22.43;47.06;100236.75;5038091;28;1107;-52
2021/05/08 04:22:15;;;;;;;;;;;;;;;22.35;47.19;100234.78;5038354;28;799;-64
2021/05/08 04:24:41;;;;;;;;;;;;;;;22.05;47.99;100231.81;5035851;28;1108;-61
2021/05/08 04:27:06;;;;;;;;;;;;;;;22.05;47.83;100237.34;5037118;28;1000;-45
2021/05/08 04:29:32;;;;;;;;;;;;;;;21.61;48.65;100240.00;5037989;28;1909;-45
2021/05/08 04:31:57;;;;;;;;;;;;;;;21.78;48.74;100243.97;5036405;28;1024;-61
2021/05/08 04:34:23;;;;;;;;;;;;;;;22.24;47.62;100239.00;5038092;28;764;-61
2021/05/08 04:36:52;;;;;;;;;;;;;;;22.44;47.12;100246.69;5037968;28;827;-49
2021/05/08 04:39:18;;;;;;;;;;;;;;;22.19;47.75;100253.81;5036839;28;1115;-45
2021/05/08 04:41:43;;;;;;;;;;;;;;;22.15;47.66;100258.38;5036815;28;800;-47
2021/05/08 04:44:09;;;;;;;;;;;;;;;21.91;47.23;100265.19;5038161;28;772;-57
2021/05/08 04:46:34;;;;;;;;;;;;;;;21.74;48.97;100271.47;5037609;28;736;-44
2021/05/08 04:49:00;;;;;;;;;;;;;;;22.03;48.16;100286.69;5037866;28;1906;-47
2021/05/08 04:51:26;;;;;;;;;;;;;;;22.25;47.64;100296.00;5037788;28;776;-67
2021/05/08 04:53:52;;;;;;;;;;;;;;;21.91;48.53;100292.03;5037187;28;1005;-65
2021/05/08 04:56:18;;;;;;;;;;;;;;;22.01;47.70;100300.84;5037773;28;767;-49
2021/05/08 04:58:49;;;;;;;;;;;;;;;21.67;47.78;100304.31;5037785;28;767;-62
2021/05/08 05:01:14;;;;;;;;;;;;;;;21.72;49.02;100314.44;5037644;28;827;-65
2021/05/08 05:03:40;;;;;;;;;;;;;;;22.00;48.25;100323.31;5052470;28;805;-52
2021/05/08 05:06:05;;;;;;;;;;;;;;;22.30;47.44;100315.22;5037319;28;812;-61
2021/05/08 05:08:31;;;;;;;;;;;;;;;22.09;47.87;100326.09;5052937;28;1910;-62
2021/05/08 05:10:56;;;;;;;;;;;;;;;22.08;48.01;100347.44;5037355;28;812;-64
2021/05/08 05:13:22;;;;;;;;;;;;;;;21.70;47.95;100342.44;5037451;28;844;-65
2021/05/08 05:15:48;;;;;;;;;;;;;;;21.75;48.86;100344.25;5037567;28;772;-64
2021/05/08 05:18:13;;;;;;;;;;;;;;;21.96;48.27;100348.06;5036724;28;1138;-62
2021/05/08 05:20:39;;;;;;;;;;;;;;;22.17;47.59;100351.03;5035361;28;1168;-50
2021/05/08 05:23:05;;;;;;;;;;;;;;;22.29;47.10;100352.41;5037335;28;764;-64
2021/05/08 05:25:30;;;;;;;;;;;;;;;22.09;47.67;100357.41;5037432;28;986;-50
2021/05/08 05:27:56;;;;;;;;;;;;;;;21.90;47.79;100362.38;5036951;28;788;-49
2021/05/08 05:30:22;;;;;;;;;;;;;;;21.55;49.24;100357.50;5037355;28;1913;-63
2021/05/08 05:32:48;;;;;;;;;;;;;;;21.87;48.24;100369.38;5049540;28;919;-62
2021/05/08 05:35:16;;;;;;;;;;;;;;;22.09;47.94;100367.63;5036044;28;928;-64
2021/05/08 05:37:45;;;;;;;;;;;;;;;22.05;47.91;100386.88;5036523;28;795;-64
2021/05/08 05:40:11;;;;;;;;;;;;;;;22.09;47.66;100385.09;5035859;28;959;-61
2021/05/08 05:42:38;;;;;;;;;;;;;;;21.73;47.55;100386.06;5035944;28;847;-64
2021/05/08 05:45:05;;;;;;;;;;;;;;;21.49;49.42;100389.97;5036810;28;779;-64
2021/05/08 05:47:32;;;;;;;;;;;;;;;21.80;48.53;100391.97;5036359;28;767;-64
2021/05/08 05:49:57;;;;;;;;;;;;;;;22.11;47.82;100404.94;5036201;28;2047;-63
2021/05/08 05:52:23;;;;;;;;;;;;;;;22.13;47.74;100418.47;5036736;28;831;-45
2021/05/08 05:54:49;;;;;;;;;;;;;;;22.06;47.67;100413.38;5035625;28;908;-64
2021/05/08 05:57:14;;;;;;;;;;;;;;;21.96;47.39;100430.28;5051821;28;901;-49
2021/05/08 05:59:40;;;;;;;;;;;;;;;21.62;48.92;100428.97;5036522;28;823;-62
2021/05/08 06:02:05;;;;;;;;;;;;;;;21.97;48.18;100429.97;5036204;28;787;-62
2021/05/08 06:04:31;;;;;;;;;;;;;;;22.14;47.51;100437.53;5036560;28;772;-65
2021/05/08 06:06:57;;;;;;;;;;;;;;;22.11;47.70;100434.59;5036590;28;819;-45
2021/05/08 06:09:25;;;;;;;;;;;;;;;22.04;47.71;100441.41;5051078;28;1981;-44
2021/05/08 06:11:50;;;;;;;;;;;;;;;22.03;47.31;100444.50;5036382;28;830;-48
2021/05/08 06:14:16;;;;;;;;;;;;;;;21.48;48.62;100442.84;5036537;28;867;-63
2021/05/08 06:16:47;;;;;;;;;;;;;;;21.69;48.57;100451.47;5036087;28;826;-65
2021/05/08 06:19:12;;;;;;;;;;;;;;;22.03;47.77;100444.50;5036412;28;803;-50
2021/05/08 06:21:39;;;;;;;;;;;;;;;22.25;47.39;100462.19;5035718;28;1001;-64
2021/05/08 06:24:06;;;;;;;;;;;;;;;22.00;47.95;100458.97;5035499;28;968;-65
2021/05/08 06:26:31;;;;;;;;;;;;;;;21.85;47.75;100449.13;5051408;28;899;-46
2021/05/08 06:29:18;;;;;;;;;;;;;;;21.49;47.15;100459.13;5036254;28;1922;-64
2021/05/08 06:31:47;;;;;;;;;;;;;;;21.53;49.01;100460.19;5035883;28;779;-46
2021/05/08 06:34:12;;;;;;;;;;;;;;;21.86;48.11;100473.72;5036160;28;776;-50
2021/05/08 06:36:38;;;;;;;;;;;;;;;22.13;47.24;100471.09;5051836;28;832;-65
2021/05/08 06:39:03;;;;;;;;;;;;;;;22.05;47.73;100486.53;5035421;28;987;-69
2021/05/08 06:41:29;;;;;;;;;;;;;;;22.08;47.07;100502.50;5036159;28;800;-45
2021/05/08 06:43:54;;;;;;;;;;;;;;;21.40;47.54;100491.44;5036155;28;756;-46
2021/05/08 06:46:20;;;;;;;;;;;;;;;21.63;48.72;100516.38;5035626;28;756;-70
2021/05/08 06:48:46;;;;;;;;;;;;;;;22.02;47.64;100523.13;5036152;28;1985;-46
2021/05/08 06:51:11;;;;;;;;;;;;;;;22.17;47.24;100528.28;5036024;28;803;-52
2021/05/08 06:53:37;;;;;;;;;;;;;;;22.03;47.57;100546.94;5034821;28;825;-47
2021/05/08 06:56:04;;;;;;;;;;;;;;;21.99;47.11;100545.94;5039295;28;827;-70
2021/05/08 06:58:29;;;;;;;;;;;;;;;21.56;47.52;100557.50;5038100;28;1419;-53
2021/05/08 07:00:55;;;;;;;;;;;;;;;21.74;48.32;100586.97;5039211;28;1005;-47
2021/05/08 07:03:21;;;;;;;;;;;;;;;22.03;47.38;100578.22;5039751;28;891;-69
2021/05/08 07:05:46;;;;;;;;;;;;;;;22.18;46.97;100574.22;5039511;28;827;-57
2021/05/08 07:08:12;;;;;;;;;;;;;;;22.07;47.48;100574.81;5039248;28;807;-66
2021/05/08 07:10:50;;;;;;;;;;;;;;;21.90;46.99;100572.75;5019738;28;1968;-48
2021/05/08 07:13:16;;;;;;;;;;;;;;;21.50;48.67;100579.72;5019411;28;851;-46
2021/05/08 07:15:41;;;;;;;;;;;;;;;21.83;47.98;100579.53;5018568;28;852;-51
2021/05/08 07:18:07;;;;;;;;;;;;;;;22.19;46.89;100589.72;5020158;28;788;-70
2021/05/08 07:20:33;;;;;;;;;;;;;;;22.34;46.70;100587.69;5019470;28;1123;-71
2021/05/08 07:22:58;;;;;;;;;;;;;;;22.32;46.72;100596.31;5019486;28;843;-64
2021/05/08 07:25:24;;;;;;;;;;;;;;;22.22;46.93;100596.56;5036486;28;1010;-47
2021/05/08 07:27:50;;;;;;;;;;;;;;;22.12;46.50;100586.56;5039294;28;824;-48
2021/05/08 07:30:16;;;;;;;;;;;;;;;21.68;48.15;100597.31;5038922;28;1911;-45
2021/05/08 07:32:41;;;;;;;;;;;;;;;21.76;47.98;100598.53;5038956;28;783;-44
2021/05/08 07:35:07;;;;;;;;;;;;;;;21.86;47.81;100603.81;5039121;28;760;-46
2021/05/08 07:37:32;;;;;;;;;;;;;;;21.99;47.27;100604.06;5039094;28;776;-68
2021/05/08 07:39:58;;;;;;;;;;;;;;;22.01;47.50;100586.00;5049003;28;1264;-60
2021/05/08 07:42:23;;;;;;;;;;;;;;;22.05;47.12;100598.09;5039476;28;764;-45
2021/05/08 07:44:49;;;;;;;;;;;;;;;22.06;47.04;100593.38;5054421;28;1211;-53
2021/05/08 07:47:14;;;;;;;;;;;;;;;22.07;47.15;100591.44;5038769;28;850;-45
2021/05/08 07:49:40;;;;;;;;;;;;;;;22.17;46.65;100580.88;5039227;28;1917;-64
2021/05/08 07:52:06;;;;;;;;;;;;;;;22.26;46.60;100591.22;5038733;28;752;-60
2021/05/08 07:54:31;;;;;;;;;;;;;;;22.21;46.60;100575.53;5038045;28;974;-71
2021/05/08 07:56:57;;;;;;;;;;;;;;;22.14;46.77;100578.75;5038402;28;836;-44
2021/05/08 07:59:22;;;;;;;;;;;;;;;22.26;46.30;100577.34;5038587;28;796;-62
2021/05/08 08:01:48;;;;;;;;;;;;;;;22.26;46.43;100585.66;5038114;28;815;-50
2021/05/08 08:04:13;;;;;;;;;;;;;;;22.24;46.33;100591.53;5038786;28;827;-45
2021/05/08 08:06:39;;;;;;;;;;;;;;;22.28;46.23;100600.03;5038210;28;872;-56
2021/05/08 08:09:04;;;;;;;;;;;;;;;22.38;45.98;100619.19;5037855;28;1883;-45
2021/05/08 08:11:31;;;;;;;;;;;;;;;22.30;46.21;100625.44;5038555;28;554;-65
2021/05/08 08:13:56;;;;;;;;;;;;;;;22.28;46.13;100634.06;5053391;28;883;-70
2021/05/08 08:16:22;;;;;;;;;;;;;;;22.31;45.98;100650.06;5038083;28;799;-48
2021/05/08 08:18:47;;;;;;;;;;;;;;;22.33;46.09;100658.91;5036292;28;1053;-45
2021/05/08 08:21:13;;;;;;;;;;;;;;;22.30;46.03;100658.69;5038041;28;1124;-46
2021/05/08 08:23:38;;;;;;;;;;;;;;;22.10;46.69;100662.78;5052487;28;943;-46
2021/05/08 08:26:04;;;;;;;;;;;;;;;22.29;45.99;100676.47;5038278;28;800;-69
2021/05/08 08:28:30;;;;;;;;;;;;;;;22.29;45.95;100676.47;5037299;28;1910;-46
2021/05/08 08:30:56;;;;;;;;;;;;;;;22.43;45.66;100673.63;5037704;28;752;-68
2021/05/08 08:33:21;;;;;;;;;;;;;;;22.41;45.82;100678.69;5038196;28;780;-70
2021/05/08 08:35:47;;;;;;;;;;;;;;;22.39;45.66;100674.25;5037993;28;773;-72
2021/05/08 08:38:13;;;;;;;;;;;;;;;22.19;46.21;100664.50;5037393;28;1014;-50
2021/05/08 08:40:38;;;;;;;;;;;;;;;22.27;46.10;100671.22;5053218;28;832;-70
2021/05/08 08:43:04;;;;;;;;;;;;;;;22.38;45.80;100664.34;5038007;28;815;-72
2021/05/08 08:45:29;;;;;;;;;;;;;;;22.38;45.78;100667.09;5037784;28;828;-57
2021/05/08 08:47:55;;;;;;;;;;;;;;;22.34;45.93;100670.81;5038001;28;875;-67
2021/05/08 08:50:20;;;;;;;;;;;;;;;22.38;45.70;100669.88;5037924;28;1910;-64
2021/05/08 08:52:47;;;;;;;;;;;;;;;22.41;45.38;100665.63;5037487;28;797;-61
2021/05/08 08:55:31;;;;;;;;;;;;;;;22.32;45.81;100670.28;5037163;28;911;-65
2021/05/08 08:58:02;;;;;;;;;;;;;;;22.38;45.75;100666.28;5036679;28;1159;-70
2021/05/08 09:00:28;;;;;;;;;;;;;;;22.37;45.55;100675.72;5049293;28;843;-55
2021/05/08 09:02:53;;;;;;;;;;;;;;;22.33;45.81;100682.97;5037197;28;737;-49
2021/05/08 09:05:20;;;;;;;;;;;;;;;22.24;46.08;100693.19;5037470;28;803;-71
2021/05/08 09:07:46;;;;;;;;;;;;;;;22.33;45.89;100691.28;5037715;28;760;-68
2021/05/08 09:10:21;;;;;;;;;;;;;;;22.31;45.97;100688.84;5019414;28;1918;-47
2021/05/08 09:12:47;;;;;;;;;;;;;;;22.35;45.60;100695.41;5037605;28;797;-46
2021/05/08 09:15:13;;;;;;;;;;;;;;;22.21;46.01;100698.22;5036820;28;771;-68
2021/05/08 09:17:42;;;;;;;;;;;;;;;22.22;45.97;100701.81;5036840;28;728;-49
2021/05/08 09:20:08;;;;;;;;;;;;;;;22.34;45.70;100692.97;5035600;28;1075;-67
2021/05/08 09:22:34;;;;;;;;;;;;;;;22.28;46.04;100696.97;5035457;28;835;-65
2021/05/08 09:24:59;;;;;;;;;;;;;;;22.40;45.48;100702.81;5037014;28;978;-48
2021/05/08 09:27:38;;;;;;;;;;;;;;;22.43;45.51;100696.63;5037418;28;760;-45
2021/05/08 09:30:10;;;;;;;;;;;;;;;22.35;45.81;100706.50;5035371;28;1981;-68
2021/05/08 09:32:42;;;;;;;;;;;;;;;22.35;45.59;100700.16;5036797;28;831;-48
2021/05/08 09:35:09;;;;;;;;;;;;;;;22.28;46.04;100694.22;5037183;28;753;-70
2021/05/08 09:37:34;;;;;;;;;;;;;;;22.31;45.85;100699.09;5036448;28;878;-71
2021/05/08 09:40:15;;;;;;;;;;;;;;;22.31;45.88;100704.66;5036569;28;955;-49
2021/05/08 09:42:44;;;;;;;;;;;;;;;22.35;45.55;100712.03;5036938;28;780;-50
2021/05/08 09:45:11;;;;;;;;;;;;;;;22.35;45.63;100725.88;5036468;28;800;-61
2021/05/08 09:47:36;;;;;;;;;;;;;;;22.38;45.55;100735.53;5036804;28;760;-50
2021/05/08 09:50:02;;;;;;;;;;;;;;;22.29;45.90;100742.94;5036431;28;1982;-68
2021/05/08 09:52:43;;;;;;;;;;;;;;;22.29;45.84;100743.75;5036314;28;796;-49
2021/05/08 09:55:09;;;;;;;;;;;;;;;22.36;45.71;100748.88;5036619;28;970;-55
2021/05/08 10:00:42;;;;;;;;;;;;;;;22.37;45.56;100758.81;5036635;28;823;-47
2021/05/08 10:03:14;;;;;;;;;;;;;;;22.30;45.96;100761.19;5036252;28;843;-53
2021/05/08 10:05:40;;;;;;;;;;;;;;;22.24;45.95;100759.66;5036036;28;884;-52
2021/05/08 10:08:06;;;;;;;;;;;;;;;22.27;45.99;100764.56;5035130;28;780;-65
2021/05/08 10:10:31;;;;;;;;;;;;;;;22.27;45.85;100782.00;5036407;28;1914;-66
2021/05/08 10:12:57;;;;;;;;;;;;;;;22.18;46.33;100773.63;5036274;28;914;-47
2021/05/08 10:15:22;;;;;;;;;;;;;;;22.14;46.29;100782.88;5036493;28;807;-65
2021/05/08 10:17:49;;;;;;;;;;;;;;;22.15;46.31;100792.84;5036267;28;752;-60
2021/05/08 10:20:15;;;;;;;;;;;;;;;22.36;45.91;100793.22;5036258;28;1025;-67
2021/05/08 10:22:46;;;;;;;;;;;;;;;22.39;45.83;100796.16;5036281;28;759;-62
2021/05/08 10:25:11;;;;;;;;;;;;;;;22.30;45.85;100784.19;5035963;28;963;-66
2021/05/08 10:27:37;;;;;;;;;;;;;;;22.25;46.14;100786.25;5051378;28;801;-66
2021/05/08 10:30:21;;;;;;;;;;;;;;;22.15;46.57;100776.22;5038635;28;1976;-45
2021/05/08 10:32:49;;;;;;;;;;;;;;;21.92;46.83;100784.44;5040058;28;831;-45
2021/05/08 10:35:18;;;;;;;;;;;;;;;21.77;47.32;100784.75;5055728;28;847;-45
2021/05/08 10:38:03;;;;;;;;;;;;;;;21.49;47.59;100785.56;5038625;28;1190;-45
2021/05/08 10:40:29;;;;;;;;;;;;;;;21.66;47.64;100798.00;5017570;28;1695;-46
2021/05/08 10:42:54;;;;;;;;;;;;;;;21.98;46.74;100807.28;5020199;28;852;-49
2021/05/08 10:45:20;;;;;;;;;;;;;;;22.11;46.40;100792.63;5020345;28;820;-52
2021/05/08 10:50:24;;;;;;;;;;;;;;;22.33;45.89;100810.41;5020119;28;1906;-67
2021/05/08 10:53:16;;;;;;;;;;;;;;;22.17;46.31;100791.38;5019149;28;780;-49
2021/05/08 10:55:51;;;;;;;;;;;;;;;21.99;46.17;100787.63;5020413;28;1072;-47
2021/05/08 10:58:17;;;;;;;;;;;;;;;21.53;48.09;100792.16;5002000;28;808;-47
2021/05/08 11:00:43;;;;;;;;;;;;;;;21.92;47.16;100798.28;5020061;28;756;-46
2021/05/08 11:03:08;;;;;;;;;;;;;;;22.15;46.56;100807.50;5019927;28;744;-61
2021/05/08 11:05:39;;;;;;;;;;;;;;;22.26;46.10;100790.63;5019892;28;787;-57
2021/05/08 11:08:23;;;;;;;;;;;;;;;22.03;46.59;100796.13;5021961;28;869;-50
2021/05/08 11:11:07;;;;;;;;;;;;;;;21.92;46.55;100803.81;5020077;28;1973;-62
2021/05/08 11:13:42;;;;;;;;;;;;;;;21.64;47.94;100811.31;5021810;28;900;-63
2021/05/08 11:16:44;;;;;;;;;;;;;;;21.92;47.27;100816.84;5038656;28;1222;-46
2021/05/08 11:19:20;;;;;;;;;;;;;;;22.17;46.55;100807.97;5039338;28;823;-50
2021/05/08 11:21:45;;;;;;;;;;;;;;;22.07;46.67;100815.72;5039480;28;1013;-52
2021/05/08 11:24:11;;;;;;;;;;;;;;;22.09;46.79;100819.81;5054161;28;1026;-48
2021/05/08 11:26:37;;;;;;;;;;;;;;;21.79;46.72;100819.31;5039124;28;812;-49
2021/05/08 11:29:04;;;;;;;;;;;;;;;21.68;47.68;100817.88;5039285;28;1914;-49
2021/05/08 11:31:30;;;;;;;;;;;;;;;21.90;47.28;100816.34;5038568;28;1272;-51
2021/05/08 11:34:14;;;;;;;;;;;;;;;22.08;46.85;100815.41;5039340;28;797;-62
2021/05/08 11:36:43;;;;;;;;;;;;;;;21.98;46.86;100823.91;5054854;28;721;-50
2021/05/08 11:39:12;;;;;;;;;;;;;;;21.95;46.80;100819.00;5038268;28;967;-50
2021/05/08 11:41:37;;;;;;;;;;;;;;;21.35;47.46;100810.47;5038059;28;823;-53
2021/05/08 11:44:03;;;;;;;;;;;;;;;21.52;48.20;100815.41;5039017;28;744;-51
2021/05/08 11:46:30;;;;;;;;;;;;;;;21.78;47.49;100825.97;5037295;28;820;-50
2021/05/08 11:48:55;;;;;;;;;;;;;;;21.97;47.20;100816.75;5038906;28;1914;-51
2021/05/08 11:51:21;;;;;;;;;;;;;;;22.09;46.68;100825.34;5037439;28;861;-56
2021/05/08 11:54:05;;;;;;;;;;;;;;;22.24;46.48;100818.63;5038493;28;945;-63
2021/05/08 11:56:31;;;;;;;;;;;;;;;21.92;47.11;100825.16;5039028;28;792;-52
2021/05/08 11:58:59;;;;;;;;;;;;;;;21.85;46.96;100823.63;5039044;28;724;-62
2021/05/08 12:01:24;;;;;;;;;;;;;;;21.63;47.92;100827.13;5038661;28;883;-63
2021/05/08 12:03:53;;;;;;;;;;;;;;;21.86;47.25;100827.22;5037824;28;1151;-49
2021/05/08 12:06:19;;;;;;;;;;;;;;;21.93;47.08;100830.38;5038765;28;746;-57
2021/05/08 12:08:44;;;;;;;;;;;;;;;22.17;46.64;100832.09;5038433;28;1909;-52
2021/05/08 12:11:14;;;;;;;;;;;;;;;22.01;46.84;100839.94;5038662;28;799;-58
2021/05/08 12:13:39;;;;;;;;;;;;;;;21.93;47.01;100835.09;5037346;28;824;-56
2021/05/08 12:16:06;;;;;;;;;;;;;;;21.85;46.68;100834.72;5038564;28;752;-50
2021/05/08 12:18:32;;;;;;;;;;;;;;;21.51;48.31;100837.81;5020218;28;1140;-48
2021/05/08 12:20:57;;;;;;;;;;;;;;;21.75;47.59;100832.13;5036971;28;1199;-50
2021/05/08 12:23:23;;;;;;;;;;;;;;;21.99;47.04;100834.69;5038123;28;967;-64
2021/05/08 12:26:07;;;;;;;;;;;;;;;22.10;46.65;100838.06;5053629;28;831;-64
2021/05/08 12:28:33;;;;;;;;;;;;;;;22.17;46.59;100837.63;5038053;28;1910;-67
2021/05/08 12:31:02;;;;;;;;;;;;;;;21.85;47.31;100845.78;5053680;28;819;-59
2021/05/08 12:33:27;;;;;;;;;;;;;;;21.81;47.22;100839.22;5038099;28;752;-68
2021/05/08 12:35:53;;;;;;;;;;;;;;;21.49;48.48;100838.13;5038048;28;844;-47
2021/05/08 12:38:26;;;;;;;;;;;;;;;21.60;48.19;100837.97;5038419;28;1005;-60
2021/05/08 12:40:52;;;;;;;;;;;;;;;21.90;47.16;100839.31;5037957;28;815;-67
2021/05/08 12:43:23;;;;;;;;;;;;;;;22.03;46.21;100838.50;5037901;28;815;-68
2021/05/08 12:45:58;;;;;;;;;;;;;;;22.08;46.70;100845.03;5037046;28;883;-67
2021/05/08 12:48:36;;;;;;;;;;;;;;;22.17;46.42;100843.97;5036821;28;844;-65
2021/05/08 12:51:02;;;;;;;;;;;;;;;22.30;46.18;100841.50;5037837;28;839;-67
2021/05/08 12:53:27;;;;;;;;;;;;;;;22.28;46.33;100839.06;5035322;28;1429;-67
2021/05/08 12:56:03;;;;;;;;;;;;;;;22.15;46.59;100846.25;5037568;28;823;-67
2021/05/08 12:58:38;;;;;;;;;;;;;;;22.06;46.78;100853.63;5037837;28;814;-69
2021/05/08 13:01:08;;;;;;;;;;;;;;;21.74;47.34;100841.56;5037581;28;842;-70
2021/05/08 13:03:40;;;;;;;;;;;;;;;21.85;46.85;100829.16;5037025;28;743;-45